This is the latest recevied weather packets stored in our database for station/object N5MDT. If no packets are shown the sender has not sent any weather packets the latest 10 day(s).
| Time | Temp. | Humidity | Pressure | Rain* | Wind** | Luminosity | Snow |
|---|---|---|---|---|---|---|---|
| 1777420701 | 33.33° C | 60% | 1011.9 hPa | 0 mm | - | - | - |
| 1777420101 | 33.89° C | 59% | 1011.8 hPa | 0 mm | - | - | - |
| 1777419531 | 34.44° C | 58% | 1011.7 hPa | 0 mm | - | - | - |
| 1777418901 | 34.44° C | 57% | 1011.6 hPa | 0 mm | - | - | - |
| 1777418301 | 35.56° C | 56% | 1011.4 hPa | 0 mm | - | - | - |
| 1777417701 | 35.56° C | 57% | 1011.3 hPa | 0 mm | - | - | - |
| 1777417101 | 35.56° C | 56% | 1011.4 hPa | 0 mm | - | - | - |
| 1777416500 | 36.11° C | 56% | 1011.3 hPa | 0 mm | - | - | - |
| 1777415901 | 35.56° C | 56% | 1011.3 hPa | 0 mm | - | - | - |
| 1777415301 | 35.56° C | 56% | 1011.2 hPa | 0 mm | - | - | - |
| 1777414700 | 35.56° C | 56% | 1011.4 hPa | 0 mm | - | - | - |
| 1777414100 | 36.11° C | 54% | 1011.5 hPa | 0 mm | - | - | - |
| 1777413500 | 36.11° C | 56% | 1011.4 hPa | 0 mm | - | - | - |
| 1777412930 | 36.11° C | 54% | 1011.6 hPa | 0 mm | - | - | - |
| 1777412301 | 36.67° C | 55% | 1011.5 hPa | 0 mm | - | - | - |
| 1777411700 | 36.67° C | 54% | 1011.8 hPa | 0 mm | - | - | - |
| 1777411130 | 36.11° C | 54% | 1012 hPa | 0 mm | - | - | - |
| 1777410500 | 36.11° C | 55% | 1012.3 hPa | 0 mm | - | - | - |
| 1777409900 | 35.56° C | 55% | 1012.3 hPa | 0 mm | - | - | - |
| 1777409300 | 35.56° C | 55% | 1012.4 hPa | 0 mm | - | - | - |
| 1777408730 | 35.56° C | 56% | 1012.5 hPa | 0 mm | - | - | - |
| 1777408099 | 35° C | 57% | 1012.8 hPa | 0 mm | - | - | - |
| 1777407500 | 34.44° C | 58% | 1013.1 hPa | 0 mm | - | - | - |
| 1777406929 | 34.44° C | 58% | 1013.1 hPa | 0 mm | - | - | - |
| 1777406329 | 33.89° C | 59% | 1013.2 hPa | 0 mm | - | - | - |
* Rain latest hour (hover to see other rain measurements)
** Current wind speed in m/s (hover to see current wind gust speed)